createdAt,value
2022-11-12T00:00:04.083Z,24.10
2022-11-12T00:02:52.457Z,22.92
2022-11-12T00:05:39.246Z,24.02
2022-11-12T00:08:26.721Z,22.08
2022-11-12T00:11:13.718Z,21.95
2022-11-12T00:14:00.356Z,25.45
2022-11-12T00:16:47.302Z,27.45
2022-11-12T00:19:35.838Z,29.15
2022-11-12T00:22:22.514Z,26.95
2022-11-12T00:25:10.317Z,27.25
2022-11-12T00:28:03.495Z,28.58
2022-11-12T00:30:50.233Z,33.40
2022-11-12T00:33:41.897Z,33.83
2022-11-12T00:36:30.351Z,34.45
2022-11-12T00:39:17.484Z,35.78
2022-11-12T00:42:05.155Z,34.33
2022-11-12T00:44:51.976Z,34.25
2022-11-12T00:47:38.580Z,35.45
2022-11-12T00:50:25.642Z,35.58
2022-11-12T00:53:13.786Z,35.70
2022-11-12T00:56:05.746Z,35.80
2022-11-12T00:58:52.606Z,36.25
2022-11-12T01:01:40.451Z,36.03
2022-11-12T01:04:27.127Z,35.47
2022-11-12T01:07:15.940Z,35.50
2022-11-12T01:10:04.618Z,36.90
2022-11-12T01:12:51.275Z,35.50
2022-11-12T01:15:42.753Z,35.78
2022-11-12T01:18:29.813Z,34.65
2022-11-12T01:21:16.734Z,35.00
2022-11-12T01:24:06.822Z,36.47
2022-11-12T01:26:55.223Z,35.28
2022-11-12T01:29:42.019Z,36.05
2022-11-12T01:32:29.065Z,35.30
2022-11-12T01:35:16.122Z,36.47
2022-11-12T01:38:02.886Z,35.58
2022-11-12T01:40:49.860Z,33.60
2022-11-12T01:43:38.372Z,35.08
2022-11-12T01:46:31.230Z,35.13
2022-11-12T01:49:23.915Z,36.83
2022-11-12T01:52:18.634Z,36.28
2022-11-12T01:55:13.414Z,34.50
2022-11-12T01:58:12.556Z,35.58
2022-11-12T02:01:02.109Z,34.95
2022-11-12T02:03:50.541Z,35.67
2022-11-12T02:06:38.893Z,33.75
2022-11-12T02:09:26.531Z,34.72
2022-11-12T02:12:33.500Z,42.38
2022-11-12T02:15:19.811Z,42.50
2022-11-12T02:18:09.279Z,33.90
2022-11-12T02:20:59.345Z,32.45
2022-11-12T02:23:47.347Z,33.70
2022-11-12T02:26:36.985Z,37.80
2022-11-12T02:29:24.261Z,34.80
2022-11-12T02:32:11.090Z,41.88
2022-11-12T02:34:57.885Z,50.55
2022-11-12T02:37:44.907Z,51.88
2022-11-12T02:40:33.188Z,51.80
2022-11-12T02:43:19.954Z,46.85
2022-11-12T02:46:07.140Z,49.80
2022-11-12T02:48:53.790Z,50.25
2022-11-12T02:51:41.004Z,52.47
2022-11-12T02:54:27.735Z,53.70
2022-11-12T02:57:17.891Z,57.13
2022-11-12T03:00:06.788Z,55.20
2022-11-12T03:02:59.885Z,54.58
2022-11-12T03:05:55.057Z,54.08
2022-11-12T03:08:41.971Z,53.10
2022-11-12T03:11:28.754Z,51.92
2022-11-12T03:14:17.215Z,50.38
2022-11-12T03:17:04.108Z,50.40
2022-11-12T03:19:51.095Z,49.97
2022-11-12T03:22:38.060Z,46.75
2022-11-12T03:25:24.885Z,47.63
2022-11-12T03:28:14.569Z,45.60
2022-11-12T03:31:03.243Z,48.60
2022-11-12T03:33:50.323Z,44.97
2022-11-12T03:36:37.545Z,44.60
2022-11-12T03:39:24.357Z,43.45
2022-11-12T03:42:11.621Z,44.30
2022-11-12T03:44:58.278Z,45.60
2022-11-12T03:47:48.629Z,42.88
2022-11-12T03:50:36.900Z,42.65
2022-11-12T03:53:23.544Z,41.42
2022-11-12T03:56:10.360Z,37.97
2022-11-12T03:58:57.160Z,36.45
2022-11-12T04:01:44.219Z,37.85
2022-11-12T04:04:46.474Z,35.30
2022-11-12T04:07:51.189Z,33.15
2022-11-12T04:10:38.285Z,31.77
2022-11-12T04:13:31.337Z,32.35
2022-11-12T04:16:38.682Z,33.03
2022-11-12T04:19:43.418Z,33.50
2022-11-12T04:22:31.582Z,30.90
2022-11-12T04:25:35.014Z,30.50
2022-11-12T04:28:22.016Z,31.52
2022-11-12T04:31:07.823Z,31.05
2022-11-12T04:33:54.561Z,31.42
2022-11-12T04:36:41.355Z,32.80
2022-11-12T04:39:29.775Z,29.90
2022-11-12T04:42:37.029Z,28.42
2022-11-12T04:45:24.058Z,31.27
2022-11-12T04:48:11.164Z,31.58
2022-11-12T04:51:01.132Z,33.58
2022-11-12T04:53:47.913Z,35.17
2022-11-12T04:56:36.190Z,31.23
2022-11-12T04:59:23.141Z,33.30
2022-11-12T05:02:10.180Z,30.67
2022-11-12T05:04:56.783Z,32.95
2022-11-12T05:07:43.812Z,39.05
2022-11-12T05:10:31.757Z,33.75
2022-11-12T05:13:20.246Z,35.55
2022-11-12T05:16:07.426Z,37.17
2022-11-12T05:18:54.045Z,35.85
2022-11-12T05:21:58.491Z,36.88
2022-11-12T05:24:46.099Z,40.63
2022-11-12T05:27:32.823Z,42.80
2022-11-12T05:30:21.687Z,39.10
2022-11-12T05:33:09.074Z,41.58
2022-11-12T05:35:57.644Z,40.80
2022-11-12T05:38:44.224Z,40.60
2022-11-12T05:41:45.209Z,43.55
2022-11-12T05:44:38.271Z,46.13
2022-11-12T05:47:26.682Z,44.65
2022-11-12T05:50:13.513Z,50.25
2022-11-12T05:53:00.557Z,44.25
2022-11-12T05:55:47.609Z,43.42
2022-11-12T05:58:34.687Z,43.63
2022-11-12T06:01:21.862Z,42.90
2022-11-12T06:04:09.998Z,39.92
2022-11-12T06:06:56.726Z,43.33
2022-11-12T06:09:43.537Z,43.35
2022-11-12T06:12:31.250Z,42.08
2022-11-12T06:15:21.116Z,44.47
2022-11-12T06:18:07.952Z,43.85
2022-11-12T06:21:13.328Z,42.00
2022-11-12T06:24:01.449Z,40.85
2022-11-12T06:26:49.830Z,41.25
2022-11-12T06:29:36.582Z,40.42
2022-11-12T06:32:23.542Z,39.15
2022-11-12T06:35:11.124Z,36.95
2022-11-12T06:37:59.169Z,40.00
2022-11-12T06:40:45.746Z,36.00
2022-11-12T06:43:34.194Z,37.58
2022-11-12T06:46:21.261Z,36.33
2022-11-12T06:49:08.494Z,35.17
2022-11-12T06:51:54.994Z,35.15
2022-11-12T06:54:43.450Z,35.78
2022-11-12T06:57:30.201Z,33.78
2022-11-12T07:00:18.778Z,33.47
2022-11-12T07:03:08.733Z,31.73
2022-11-12T07:05:55.782Z,31.15
2022-11-12T07:08:43.239Z,31.55
2022-11-12T07:11:31.713Z,29.92
2022-11-12T07:14:18.316Z,29.42
2022-11-12T07:17:06.467Z,27.50
2022-11-12T07:19:53.431Z,27.13
2022-11-12T07:22:40.661Z,26.75
2022-11-12T07:25:27.436Z,27.02
2022-11-12T07:28:15.903Z,25.30
2022-11-12T07:31:04.671Z,24.27
2022-11-12T07:33:51.399Z,23.48
2022-11-12T07:36:38.431Z,24.95
2022-11-12T07:39:25.405Z,23.48
2022-11-12T07:42:12.157Z,22.35
2022-11-12T07:45:00.404Z,21.80
2022-11-12T07:47:47.139Z,21.13
2022-11-12T07:50:34.131Z,21.02
2022-11-12T07:53:21.206Z,20.75
2022-11-12T07:56:08.853Z,19.88
2022-11-12T07:58:55.572Z,19.55
2022-11-12T08:01:44.996Z,20.20
2022-11-12T08:04:31.701Z,21.00
2022-11-12T08:07:18.680Z,21.58
2022-11-12T08:10:06.702Z,24.65
2022-11-12T08:12:53.351Z,23.52
2022-11-12T08:15:40.404Z,21.67
2022-11-12T08:18:29.869Z,22.33
2022-11-12T08:21:19.339Z,21.52
2022-11-12T08:24:06.895Z,21.83
2022-11-12T08:26:53.816Z,20.67
2022-11-12T08:29:41.030Z,19.65
2022-11-12T08:32:27.928Z,19.08
2022-11-12T08:35:16.353Z,17.73
2022-11-12T08:38:06.612Z,17.63
2022-11-12T08:40:53.538Z,17.77
2022-11-12T08:43:42.182Z,17.42
2022-11-12T08:46:29.397Z,17.70
2022-11-12T08:49:16.289Z,16.90
2022-11-12T08:52:07.623Z,16.48
2022-11-12T08:54:54.345Z,17.13
2022-11-12T08:57:46.127Z,16.80
2022-11-12T09:00:35.673Z,16.88
2022-11-12T09:03:25.340Z,16.42
2022-11-12T09:06:12.078Z,16.90
2022-11-12T09:09:00.476Z,16.75
2022-11-12T09:11:47.175Z,16.25
2022-11-12T09:14:34.172Z,16.55
2022-11-12T09:17:21.042Z,16.63
2022-11-12T09:20:08.919Z,15.57
2022-11-12T09:23:00.984Z,16.30
2022-11-12T09:25:49.606Z,15.85
2022-11-12T09:28:36.639Z,16.52
2022-11-12T09:31:25.709Z,15.70
2022-11-12T09:34:12.715Z,16.45
2022-11-12T09:36:59.467Z,16.13
2022-11-12T09:39:46.509Z,16.15
2022-11-12T09:42:37.343Z,16.95
2022-11-12T09:45:31.301Z,16.50
2022-11-12T09:48:25.020Z,16.15
2022-11-12T09:51:29.845Z,15.88
2022-11-12T09:54:25.333Z,15.18
2022-11-12T09:57:13.446Z,14.20
2022-11-12T10:00:03.459Z,15.45
2022-11-12T10:02:57.467Z,16.40
2022-11-12T10:05:51.005Z,14.40
2022-11-12T10:08:49.170Z,15.48
2022-11-12T10:12:15.448Z,14.85
2022-11-12T10:16:10.357Z,14.90
2022-11-12T10:19:31.957Z,15.00
2022-11-12T10:22:38.570Z,15.85
2022-11-12T10:25:28.159Z,14.18
2022-11-12T10:28:35.624Z,13.48
2022-11-12T10:31:25.542Z,13.15
2022-11-12T10:34:20.035Z,13.60
2022-11-12T10:37:12.055Z,12.48
2022-11-12T10:39:59.330Z,12.88
2022-11-12T10:42:59.662Z,14.05
2022-11-12T10:45:49.013Z,13.32
2022-11-12T10:48:37.417Z,12.75
2022-11-12T10:51:32.300Z,12.63
2022-11-12T10:54:31.719Z,11.32
2022-11-12T10:57:27.342Z,10.73
2022-11-12T11:00:23.495Z,9.75
2022-11-12T11:03:22.659Z,11.00
2022-11-12T11:06:27.312Z,11.38
2022-11-12T11:09:21.761Z,10.90
2022-11-12T11:12:28.290Z,10.57
2022-11-12T11:15:24.645Z,11.38
2022-11-12T11:18:15.593Z,10.82
2022-11-12T11:21:19.301Z,9.57
2022-11-12T11:24:29.698Z,10.45
2022-11-12T11:27:31.302Z,10.13
2022-11-12T11:30:20.792Z,9.93
2022-11-12T11:33:30.949Z,9.98
2022-11-12T11:36:29.947Z,8.07
2022-11-12T11:39:27.546Z,9.05
2022-11-12T11:42:49.911Z,8.70
2022-11-12T11:45:58.882Z,9.15
2022-11-12T11:49:03.480Z,8.10
2022-11-12T11:51:59.953Z,7.80
2022-11-12T11:55:01.814Z,7.35
2022-11-12T11:58:07.882Z,6.82
2022-11-12T12:01:08.351Z,6.70
2022-11-12T12:04:38.382Z,7.25
2022-11-12T12:07:40.399Z,6.68
2022-11-12T12:11:01.233Z,6.72
2022-11-12T12:14:00.796Z,7.03
2022-11-12T12:17:00.772Z,7.05
2022-11-12T12:19:59.155Z,6.80
2022-11-12T12:22:51.733Z,6.60
2022-11-12T12:25:42.653Z,7.32
2022-11-12T12:28:38.906Z,5.95
2022-11-12T12:31:33.840Z,4.90
2022-11-12T12:34:25.807Z,5.18
2022-11-12T12:37:23.296Z,5.07
2022-11-12T12:40:20.343Z,5.35
2022-11-12T12:43:16.811Z,5.18
2022-11-12T12:46:05.053Z,5.53
2022-11-12T12:48:55.455Z,5.15
2022-11-12T12:51:42.528Z,5.43
2022-11-12T12:54:59.889Z,5.63
2022-11-12T12:57:49.875Z,5.47
2022-11-12T13:00:40.342Z,5.82
2022-11-12T13:04:02.476Z,6.25
2022-11-12T13:06:56.095Z,5.50
2022-11-12T13:09:43.202Z,4.97
2022-11-12T13:13:08.236Z,5.00
2022-11-12T13:15:57.116Z,4.60
2022-11-12T13:19:05.554Z,5.10
2022-11-12T13:22:51.733Z,5.05
2022-11-12T13:25:41.400Z,5.30
2022-11-12T13:28:28.567Z,5.50
2022-11-12T13:31:29.151Z,5.10
2022-11-12T13:34:23.599Z,5.88
2022-11-12T13:37:23.708Z,5.93
2022-11-12T13:40:17.209Z,6.70
2022-11-12T13:43:31.417Z,6.55
2022-11-12T13:46:28.981Z,6.90
2022-11-12T13:49:18.490Z,6.85
2022-11-12T13:52:07.429Z,6.30
2022-11-12T13:55:09.631Z,6.65
2022-11-12T13:57:58.398Z,7.50
2022-11-12T14:00:54.124Z,6.38
2022-11-12T14:03:49.656Z,6.68
2022-11-12T14:06:40.317Z,7.13
2022-11-12T14:09:56.612Z,6.78
2022-11-12T14:13:13.446Z,6.60
2022-11-12T14:16:37.391Z,6.65
2022-11-12T14:20:23.715Z,6.80
2022-11-12T14:23:21.590Z,6.72
2022-11-12T14:26:15.928Z,6.47
2022-11-12T14:29:06.010Z,6.82
2022-11-12T14:32:04.750Z,7.68
2022-11-12T14:34:51.975Z,7.75
2022-11-12T14:37:43.639Z,7.75
2022-11-12T14:40:34.514Z,8.65
2022-11-12T14:43:33.551Z,8.07
2022-11-12T14:46:29.332Z,9.13
2022-11-12T14:49:29.325Z,10.30
2022-11-12T14:52:23.214Z,9.53
2022-11-12T14:55:15.009Z,8.77
2022-11-12T14:58:03.068Z,7.97
2022-11-12T15:00:52.612Z,8.02
2022-11-12T15:03:41.206Z,7.80
2022-11-12T15:06:33.971Z,7.47
2022-11-12T15:09:33.852Z,8.98
2022-11-12T15:12:25.579Z,8.80
2022-11-12T15:15:22.755Z,8.00
2022-11-12T15:18:18.979Z,9.55
2022-11-12T15:21:15.648Z,8.80
2022-11-12T15:24:09.242Z,9.57
2022-11-12T15:27:03.705Z,9.95
2022-11-12T15:29:50.479Z,10.65
2022-11-12T15:32:37.674Z,10.68
2022-11-12T15:35:36.994Z,12.02
2022-11-12T15:38:33.348Z,11.27
2022-11-12T15:41:25.206Z,12.35
2022-11-12T15:44:12.663Z,11.70
2022-11-12T15:47:00.024Z,12.15
2022-11-12T15:49:51.959Z,11.85
2022-11-12T15:52:39.129Z,11.75
2022-11-12T15:55:28.703Z,12.77
2022-11-12T15:58:21.202Z,12.80
2022-11-12T16:01:08.530Z,13.35
2022-11-12T16:03:57.101Z,13.57
2022-11-12T16:06:48.819Z,15.23
2022-11-12T16:09:36.472Z,14.57
2022-11-12T16:12:25.522Z,14.57
2022-11-12T16:15:19.802Z,14.93
2022-11-12T16:18:07.446Z,13.50
2022-11-12T16:20:56.226Z,13.15
2022-11-12T16:23:46.255Z,12.88
2022-11-12T16:26:34.874Z,11.82
2022-11-12T16:29:23.598Z,12.63
2022-11-12T16:32:15.384Z,11.98
2022-11-12T16:35:02.611Z,11.98
2022-11-12T16:37:50.129Z,12.40
2022-11-12T16:40:39.056Z,13.13
2022-11-12T16:43:26.395Z,12.20
2022-11-12T16:46:29.051Z,12.85
2022-11-12T16:49:21.222Z,12.43
2022-11-12T16:52:12.425Z,12.18
2022-11-12T16:55:04.285Z,12.20
2022-11-12T16:57:52.327Z,12.85
2022-11-12T17:00:40.095Z,12.52
2022-11-12T17:03:28.852Z,12.50
2022-11-12T17:06:17.733Z,12.73
2022-11-12T17:09:06.326Z,11.63
2022-11-12T17:11:53.547Z,13.20
2022-11-12T17:14:40.622Z,13.00
2022-11-12T17:17:27.918Z,12.77
2022-11-12T17:20:16.540Z,12.57
2022-11-12T17:23:03.797Z,13.23
2022-11-12T17:26:00.888Z,13.52
2022-11-12T17:28:48.520Z,14.63
2022-11-12T17:31:37.752Z,15.18
2022-11-12T17:34:25.371Z,18.20
2022-11-12T17:37:15.368Z,16.73
2022-11-12T17:40:02.511Z,16.75
2022-11-12T17:42:49.836Z,15.45
2022-11-12T17:45:37.044Z,15.82
2022-11-12T17:48:25.942Z,17.55
2022-11-12T17:51:16.078Z,17.40
2022-11-12T17:54:05.105Z,17.25
2022-11-12T17:56:52.360Z,16.05
2022-11-12T17:59:39.527Z,15.40
2022-11-12T18:02:26.415Z,15.63
2022-11-12T18:05:13.364Z,15.52
2022-11-12T18:08:00.174Z,14.20
2022-11-12T18:10:48.600Z,13.30
2022-11-12T18:13:37.906Z,13.05
2022-11-12T18:16:30.797Z,14.55
2022-11-12T18:19:18.131Z,15.23
2022-11-12T18:22:05.205Z,16.10
2022-11-12T18:24:52.970Z,17.98
2022-11-12T18:27:41.421Z,11.15
2022-11-12T18:30:35.003Z,10.35
2022-11-12T18:33:22.597Z,9.75
2022-11-12T18:36:12.464Z,11.30
2022-11-12T18:39:05.452Z,12.50
2022-11-12T18:41:52.648Z,16.00
2022-11-12T18:44:48.871Z,14.00
2022-11-12T18:47:36.129Z,15.77
2022-11-12T18:50:25.865Z,19.02
2022-11-12T18:53:12.986Z,18.40
2022-11-12T18:56:03.529Z,19.08
2022-11-12T18:58:54.217Z,20.58
2022-11-12T19:01:43.868Z,22.75
2022-11-12T19:04:38.774Z,22.57
2022-11-12T19:07:28.330Z,21.98
2022-11-12T19:10:46.620Z,21.25
2022-11-12T19:13:27.706Z,21.45
2022-11-12T19:16:22.962Z,19.88
2022-11-12T19:19:15.316Z,22.00
2022-11-12T19:22:02.882Z,22.50
2022-11-12T19:25:00.308Z,22.38
2022-11-12T19:27:48.028Z,22.52
2022-11-12T19:30:36.471Z,21.50
2022-11-12T19:33:23.520Z,22.35
2022-11-12T19:36:16.946Z,22.95
2022-11-12T19:39:06.500Z,23.40
2022-11-12T19:41:53.548Z,22.55
2022-11-12T19:44:41.036Z,22.38
2022-11-12T19:47:29.405Z,22.38
2022-11-12T19:50:18.806Z,22.33
2022-11-12T19:53:13.715Z,22.17
2022-11-12T19:56:04.152Z,21.83
2022-11-12T19:58:54.994Z,22.58
2022-11-12T20:01:41.869Z,22.92
2022-11-12T20:04:29.380Z,21.75
2022-11-12T20:07:16.868Z,22.15
2022-11-12T20:10:06.803Z,22.58
2022-11-12T20:12:56.690Z,21.53
2022-11-12T20:15:45.108Z,24.60
2022-11-12T20:18:39.958Z,26.17
2022-11-12T20:21:30.304Z,27.17
2022-11-12T20:24:19.357Z,25.92
2022-11-12T20:27:13.775Z,24.23
2022-11-12T20:30:01.089Z,24.58
2022-11-12T20:32:51.079Z,27.67
2022-11-12T20:35:39.967Z,34.90
2022-11-12T20:38:29.704Z,29.67
2022-11-12T20:41:22.222Z,25.23
2022-11-12T20:44:11.696Z,25.90
2022-11-12T20:47:01.535Z,23.50
2022-11-12T20:49:48.506Z,21.90
2022-11-12T20:52:37.828Z,23.63
2022-11-12T20:55:24.966Z,24.38
2022-11-12T20:58:11.978Z,24.33
2022-11-12T21:01:08.493Z,25.42
2022-11-12T21:03:57.869Z,24.58
2022-11-12T21:06:45.247Z,27.08
2022-11-12T21:09:32.829Z,25.50
2022-11-12T21:12:19.998Z,27.00
2022-11-12T21:15:10.305Z,25.50
2022-11-12T21:18:02.384Z,25.02
2022-11-12T21:20:52.620Z,26.55
2022-11-12T21:23:43.524Z,26.13
2022-11-12T21:26:31.198Z,26.73
2022-11-12T21:29:20.487Z,27.95
2022-11-12T21:32:07.434Z,26.10
2022-11-12T21:34:56.311Z,26.67
2022-11-12T21:37:50.512Z,26.83
2022-11-12T21:40:37.644Z,26.48
2022-11-12T21:43:35.146Z,26.88
2022-11-12T21:46:24.788Z,27.42
2022-11-12T21:49:12.076Z,27.03
2022-11-12T21:52:03.649Z,25.00
2022-11-12T21:54:50.911Z,25.77
2022-11-12T21:57:40.288Z,26.88
2022-11-12T22:00:47.120Z,27.25
2022-11-12T22:03:36.223Z,26.02
2022-11-12T22:06:28.344Z,23.73
2022-11-12T22:09:17.205Z,26.83
2022-11-12T22:12:06.079Z,24.58
2022-11-12T22:14:54.648Z,25.58
2022-11-12T22:17:44.051Z,25.73
2022-11-12T22:20:32.382Z,24.77
2022-11-12T22:23:21.414Z,28.33
2022-11-12T22:26:15.786Z,29.60
2022-11-12T22:29:14.876Z,29.13
2022-11-12T22:32:02.014Z,28.90
2022-11-12T22:34:49.617Z,29.45
2022-11-12T22:37:36.710Z,27.05
2022-11-12T22:40:24.926Z,27.50
2022-11-12T22:43:13.211Z,27.90
2022-11-12T22:46:06.223Z,27.23
2022-11-12T22:48:53.276Z,26.23
2022-11-12T22:51:40.524Z,27.83
2022-11-12T22:54:29.947Z,29.80
2022-11-12T22:57:17.196Z,29.35
2022-11-12T23:00:21.537Z,29.67
2022-11-12T23:03:08.667Z,28.50
2022-11-12T23:05:59.721Z,29.10
2022-11-12T23:08:47.479Z,28.73
2022-11-12T23:11:35.847Z,28.95
2022-11-12T23:14:23.125Z,29.75
2022-11-12T23:17:12.997Z,28.85
2022-11-12T23:20:00.088Z,29.93
2022-11-12T23:22:47.091Z,31.23
2022-11-12T23:25:37.040Z,30.33
2022-11-12T23:28:24.186Z,28.48
2022-11-12T23:31:15.061Z,29.88
2022-11-12T23:34:03.470Z,30.05
2022-11-12T23:36:50.277Z,31.63
2022-11-12T23:39:37.229Z,31.60
2022-11-12T23:42:24.348Z,31.63
2022-11-12T23:45:14.165Z,32.38
2022-11-12T23:48:01.230Z,31.98
2022-11-12T23:50:51.214Z,33.10
2022-11-12T23:53:39.846Z,32.60
2022-11-12T23:56:27.114Z,31.75
2022-11-12T23:59:13.743Z,33.05
